Time;durP1;ratioP1;P1;durP2;ratioP2;P2;SDS_P1;SDS_P2;PMS_P1;PMS_P2;Temp;Humidity;BMP_temperature;BMP_pressure;BME280_temperature;BME280_humidity;BME280_pressure;Samples;Min_cycle;Max_cycle;Signal;HPM_P1;HPM_P2
2022/06/15 00:16:33;;;;;;;8.20;4.63;;;;;;;;;;6269492;22;20205;-93
2022/06/15 00:19:38;;;;;;;11.23;4.57;;;;;;;;;;6270510;22;20166;-93
2022/06/15 00:22:43;;;;;;;9.57;4.60;;;;;;;;;;6272043;22;20186;-92
2022/06/15 00:25:50;;;;;;;11.18;4.70;;;;;;;;;;6271464;22;20232;-92
2022/06/15 00:28:56;;;;;;;9.07;4.30;;;;;;;;;;6273805;22;20162;-92
2022/06/15 00:32:03;;;;;;;11.55;4.53;;;;;;;;;;6273408;22;20178;-91
2022/06/15 00:35:08;;;;;;;9.70;4.43;;;;;;;;;;6272792;22;20162;-91
2022/06/15 00:38:14;;;;;;;7.80;4.70;;;;;;;;;;6293326;22;20149;-91
2022/06/15 00:41:22;;;;;;;9.93;4.57;;;;;;;;;;6274194;22;20489;-91
2022/06/15 00:44:36;;;;;;;11.35;4.68;;;;;;;;;;6273423;22;20176;-90
2022/06/15 00:47:44;;;;;;;12.07;5.43;;;;;;;;;;6275369;22;20166;-91
2022/06/15 00:50:50;;;;;;;9.90;4.68;;;;;;;;;;6273191;22;20186;-93
2022/06/15 00:53:56;;;;;;;9.93;4.53;;;;;;;;;;6273675;22;20166;-92
2022/06/15 00:57:03;;;;;;;9.00;4.45;;;;;;;;;;6272574;22;20181;-91
2022/06/15 01:00:12;;;;;;;12.48;4.68;;;;;;;;;;6272158;22;20165;-90
2022/06/15 01:03:19;;;;;;;12.52;4.57;;;;;;;;;;6273453;22;20270;-91
2022/06/15 01:06:29;;;;;;;8.27;4.80;;;;;;;;;;6273104;22;20235;-90
2022/06/15 01:09:48;;;;;;;8.23;4.43;;;;;;;;;;6273416;22;20166;-91
2022/06/15 01:12:58;;;;;;;9.27;4.57;;;;;;;;;;6273242;22;20150;-92
2022/06/15 01:16:08;;;;;;;8.88;4.50;;;;;;;;;;6274423;22;20177;-90
2022/06/15 01:19:29;;;;;;;13.15;4.93;;;;;;;;;;6275531;22;20169;-92
2022/06/15 01:26:18;;;;;;;7.88;4.50;;;;;;;;;;6274025;22;20165;-92
2022/06/15 01:29:34;;;;;;;10.18;4.93;;;;;;;;;;6274651;22;20154;-92
2022/06/15 01:32:44;;;;;;;17.02;5.95;;;;;;;;;;6273320;22;20210;-93
2022/06/15 01:35:54;;;;;;;10.27;5.00;;;;;;;;;;6271804;22;20149;-91
2022/06/15 01:39:04;;;;;;;11.55;5.50;;;;;;;;;;6272686;22;20161;-93
2022/06/15 01:42:12;;;;;;;11.77;5.20;;;;;;;;;;6272746;22;20232;-91
2022/06/15 01:45:19;;;;;;;8.90;5.22;;;;;;;;;;6272660;22;20245;-92
2022/06/15 01:48:27;;;;;;;12.05;5.68;;;;;;;;;;6272434;22;20166;-92
2022/06/15 01:51:35;;;;;;;11.82;5.25;;;;;;;;;;6273081;22;20236;-90
2022/06/15 01:54:42;;;;;;;10.18;5.10;;;;;;;;;;6273421;22;20189;-92
2022/06/15 01:57:49;;;;;;;12.25;5.63;;;;;;;;;;6272866;22;20165;-91
2022/06/15 02:01:14;;;;;;;10.90;5.72;;;;;;;;;;6274535;22;20169;-92
2022/06/15 02:04:24;;;;;;;9.15;4.88;;;;;;;;;;6271997;22;20221;-92
2022/06/15 02:07:31;;;;;;;11.07;5.25;;;;;;;;;;6274132;22;20256;-91
2022/06/15 02:10:38;;;;;;;9.82;5.38;;;;;;;;;;6272631;22;20537;-93
2022/06/15 02:13:47;;;;;;;10.38;5.28;;;;;;;;;;6273774;22;20151;-93
2022/06/15 02:16:58;;;;;;;9.20;5.38;;;;;;;;;;6273743;22;20256;-92
2022/06/15 02:20:10;;;;;;;13.35;5.60;;;;;;;;;;6272889;22;20158;-91
2022/06/15 02:23:19;;;;;;;14.80;6.10;;;;;;;;;;6273185;22;20177;-90
2022/06/15 02:26:26;;;;;;;10.50;5.90;;;;;;;;;;6271127;22;20212;-93
2022/06/15 02:29:34;;;;;;;13.55;6.68;;;;;;;;;;6273345;22;20169;-92
2022/06/15 02:32:42;;;;;;;13.73;6.68;;;;;;;;;;6271668;22;20170;-93
2022/06/15 02:35:48;;;;;;;17.13;7.18;;;;;;;;;;6272198;22;20281;-91
2022/06/15 02:38:57;;;;;;;14.85;7.22;;;;;;;;;;6273871;22;20190;-92
2022/06/15 02:42:23;;;;;;;16.20;6.97;;;;;;;;;;6271360;22;20249;-92
2022/06/15 02:45:35;;;;;;;12.57;7.07;;;;;;;;;;6272786;22;20622;-92
2022/06/15 02:48:42;;;;;;;15.38;7.28;;;;;;;;;;6272588;22;20153;-92
2022/06/15 02:51:51;;;;;;;13.75;6.30;;;;;;;;;;6272487;22;20174;-92
2022/06/15 02:54:59;;;;;;;13.02;6.40;;;;;;;;;;6273947;22;20209;-92
2022/06/15 02:58:07;;;;;;;17.50;6.72;;;;;;;;;;6274825;22;20170;-92
2022/06/15 03:01:21;;;;;;;14.27;6.13;;;;;;;;;;6273908;22;20227;-92
2022/06/15 03:04:28;;;;;;;20.45;6.28;;;;;;;;;;6276622;22;20190;-93
2022/06/15 03:07:34;;;;;;;12.32;5.30;;;;;;;;;;6276448;22;20145;-92
2022/06/15 03:10:42;;;;;;;12.40;5.32;;;;;;;;;;6274957;22;20216;-92
2022/06/15 03:13:50;;;;;;;13.35;5.78;;;;;;;;;;6274154;22;20153;-91
2022/06/15 03:16:56;;;;;;;15.77;5.78;;;;;;;;;;6272416;22;20189;-92
2022/06/15 03:20:03;;;;;;;14.10;6.45;;;;;;;;;;6273256;22;20145;-91
2022/06/15 03:23:13;;;;;;;13.23;6.35;;;;;;;;;;6273253;22;20193;-89
2022/06/15 03:26:31;;;;;;;14.45;6.90;;;;;;;;;;6272400;22;20162;-92
2022/06/15 03:29:37;;;;;;;18.02;6.82;;;;;;;;;;6273483;22;20213;-91
2022/06/15 03:32:47;;;;;;;18.83;7.63;;;;;;;;;;6273872;22;20307;-90
2022/06/15 03:35:57;;;;;;;14.32;6.38;;;;;;;;;;6273605;22;20150;-89
2022/06/15 03:39:06;;;;;;;20.60;6.32;;;;;;;;;;6274374;22;20180;-91
2022/06/15 03:42:22;;;;;;;16.05;6.80;;;;;;;;;;6271100;22;20173;-93
2022/06/15 03:45:28;;;;;;;16.98;7.00;;;;;;;;;;6272455;22;20182;-91
2022/06/15 03:48:34;;;;;;;11.40;6.30;;;;;;;;;;6274550;22;20201;-91
2022/06/15 03:51:40;;;;;;;10.52;5.93;;;;;;;;;;6274350;22;20276;-91
2022/06/15 03:54:45;;;;;;;11.27;5.90;;;;;;;;;;6275468;22;20610;-92
2022/06/15 03:57:52;;;;;;;11.63;5.78;;;;;;;;;;6274306;22;20160;-91
2022/06/15 04:00:58;;;;;;;16.23;6.05;;;;;;;;;;6274071;22;20158;-90
2022/06/15 04:04:07;;;;;;;11.05;5.18;;;;;;;;;;6274946;22;20197;-91
2022/06/15 04:10:32;;;;;;;12.27;6.60;;;;;;;;;;6273964;22;20214;-93
2022/06/15 04:13:39;;;;;;;11.93;5.80;;;;;;;;;;6273095;22;20301;-92
2022/06/15 04:16:46;;;;;;;9.18;5.40;;;;;;;;;;6274421;22;20200;-92
2022/06/15 04:23:12;;;;;;;10.45;5.68;;;;;;;;;;6278007;22;20190;-92
2022/06/15 04:26:20;;;;;;;12.88;6.63;;;;;;;;;;6277935;22;20489;-93
2022/06/15 04:29:32;;;;;;;12.95;5.65;;;;;;;;;;6277883;22;20161;-91
2022/06/15 04:32:39;;;;;;;16.48;5.68;;;;;;;;;;6276422;22;20181;-93
2022/06/15 04:35:53;;;;;;;11.68;5.63;;;;;;;;;;6276787;22;20150;-93
2022/06/15 04:39:00;;;;;;;8.23;4.50;;;;;;;;;;6276160;22;20215;-91
2022/06/15 04:42:14;;;;;;;7.05;4.60;;;;;;;;;;6275193;22;20165;-92
2022/06/15 04:49:14;;;;;;;8.90;5.22;;;;;;;;;;6279024;22;20157;-92
2022/06/15 04:52:30;;;;;;;10.15;4.88;;;;;;;;;;6274962;22;20237;-93
2022/06/15 04:55:42;;;;;;;9.70;5.13;;;;;;;;;;6276277;22;20158;-93
2022/06/15 04:58:53;;;;;;;11.95;4.88;;;;;;;;;;6276257;22;20154;-93
2022/06/15 05:02:00;;;;;;;9.77;5.43;;;;;;;;;;6276493;22;20170;-93
2022/06/15 05:05:09;;;;;;;9.68;5.25;;;;;;;;;;6279468;22;20244;-93
2022/06/15 09:13:16;;;;;;;3.75;1.83;;;;;;;;;;6254412;22;20213;-94
2022/06/15 09:16:58;;;;;;;5.13;1.92;;;;;;;;;;6274906;22;20173;-94
2022/06/15 09:20:25;;;;;;;5.15;1.92;;;;;;;;;;6278738;22;20225;-93
2022/06/15 09:27:19;;;;;;;4.47;1.70;;;;;;;;;;6275088;22;20176;-92
2022/06/15 09:30:47;;;;;;;3.70;1.58;;;;;;;;;;6271938;22;20617;-92
2022/06/15 09:34:06;;;;;;;5.55;1.90;;;;;;;;;;6277177;22;20169;-91
2022/06/15 09:37:26;;;;;;;5.90;2.15;;;;;;;;;;6274554;22;20225;-90
2022/06/15 09:40:55;;;;;;;6.00;1.52;;;;;;;;;;6276877;22;20169;-91
2022/06/15 09:44:23;;;;;;;4.38;1.70;;;;;;;;;;6277508;22;20216;-92
2022/06/15 09:47:57;;;;;;;4.63;2.00;;;;;;;;;;6277213;22;20212;-92
2022/06/15 09:51:32;;;;;;;4.72;2.10;;;;;;;;;;6276513;22;20169;-92
2022/06/15 09:54:59;;;;;;;4.45;1.80;;;;;;;;;;6277789;22;20204;-91
2022/06/15 09:58:29;;;;;;;3.80;1.98;;;;;;;;;;6274885;22;20164;-91
2022/06/15 10:01:50;;;;;;;4.15;1.73;;;;;;;;;;6274673;22;20187;-93
2022/06/15 10:05:17;;;;;;;4.47;1.80;;;;;;;;;;6297572;22;20192;-92
2022/06/15 10:08:42;;;;;;;4.22;1.80;;;;;;;;;;6276835;22;20165;-93
2022/06/15 10:11:57;;;;;;;6.38;1.92;;;;;;;;;;6275916;22;20168;-92
2022/06/15 10:15:45;;;;;;;4.95;1.55;;;;;;;;;;6277687;22;20208;-92
2022/06/15 10:34:10;;;;;;;3.47;1.50;;;;;;;;;;6268135;22;20196;-93
2022/06/15 10:41:45;;;;;;;2.83;1.30;;;;;;;;;;6298086;22;20165;-93
2022/06/15 10:44:46;;;;;;;2.95;1.50;;;;;;;;;;6278346;22;20193;-92
2022/06/15 10:48:07;;;;;;;5.25;1.80;;;;;;;;;;6279798;22;20185;-92
2022/06/15 10:51:44;;;;;;;4.45;1.85;;;;;;;;;;6279600;22;20213;-91
2022/06/15 11:02:21;;;;;;;3.55;1.65;;;;;;;;;;6272636;22;20148;-92
2022/06/15 11:05:42;;;;;;;3.67;1.40;;;;;;;;;;6271070;22;20192;-92
2022/06/15 11:09:23;;;;;;;2.95;1.38;;;;;;;;;;6270686;22;20205;-92
2022/06/15 11:12:58;;;;;;;3.33;1.30;;;;;;;;;;6273615;22;20160;-93
2022/06/15 11:20:28;;;;;;;2.85;1.05;;;;;;;;;;6271242;22;20215;-93
2022/06/15 11:27:30;;;;;;;2.90;1.10;;;;;;;;;;6268128;22;20639;-92
2022/06/15 11:30:59;;;;;;;5.72;1.42;;;;;;;;;;6271915;22;20165;-93
2022/06/15 11:34:14;;;;;;;3.25;1.17;;;;;;;;;;6279169;22;20169;-93
2022/06/15 11:37:34;;;;;;;2.75;1.20;;;;;;;;;;6275105;22;20166;-94
2022/06/15 11:40:47;;;;;;;2.15;1.00;;;;;;;;;;6278154;22;20188;-93
2022/06/15 11:44:05;;;;;;;4.30;1.40;;;;;;;;;;6278705;22;20216;-93
2022/06/15 11:47:20;;;;;;;4.80;1.40;;;;;;;;;;6274531;22;20245;-94
2022/06/15 11:50:49;;;;;;;2.33;1.00;;;;;;;;;;6277062;22;20211;-93
2022/06/15 11:54:18;;;;;;;2.25;0.93;;;;;;;;;;6275826;22;20219;-94
2022/06/15 11:57:32;;;;;;;3.75;1.30;;;;;;;;;;6275148;22;20205;-92
2022/06/15 12:00:44;;;;;;;2.35;1.10;;;;;;;;;;6278198;22;20160;-91
2022/06/15 20:54:12;;;;;;;9.70;2.70;;;;;;;;;;6263318;22;20555;-92
2022/06/15 20:57:18;;;;;;;5.35;2.22;;;;;;;;;;6244700;23;20178;-93
2022/06/15 21:00:23;;;;;;;6.00;2.67;;;;;;;;;;6246761;22;20342;-92
2022/06/15 21:03:29;;;;;;;5.32;2.30;;;;;;;;;;6246069;23;20302;-94
2022/06/15 21:06:36;;;;;;;7.30;2.78;;;;;;;;;;6245800;23;20193;-90
2022/06/15 21:17:35;;;;;;;6.35;2.50;;;;;;;;;;6245538;22;20229;-92
2022/06/15 21:20:16;;;;;;;8.27;2.78;;;;;;;;;;6244478;22;20166;-92
2022/06/15 21:23:21;;;;;;;7.25;2.72;;;;;;;;;;6243685;23;20166;-92
2022/06/15 21:26:29;;;;;;;6.35;3.03;;;;;;;;;;6243080;22;20265;-93
2022/06/15 21:29:34;;;;;;;6.22;2.90;;;;;;;;;;6243503;23;20257;-93
2022/06/15 21:32:40;;;;;;;6.75;2.80;;;;;;;;;;6245199;22;20162;-92
2022/06/15 21:35:46;;;;;;;7.90;2.90;;;;;;;;;;6245484;22;20155;-92
2022/06/15 21:38:51;;;;;;;9.02;2.78;;;;;;;;;;6246661;23;20154;-92
2022/06/15 21:41:59;;;;;;;6.47;2.80;;;;;;;;;;6243188;23;20162;-94
2022/06/15 21:45:07;;;;;;;6.00;2.70;;;;;;;;;;6244941;22;20229;-93
2022/06/15 21:48:13;;;;;;;5.63;2.58;;;;;;;;;;6242658;22;20235;-92
2022/06/15 21:51:19;;;;;;;7.22;2.88;;;;;;;;;;6244544;23;20229;-92
2022/06/15 21:54:24;;;;;;;6.70;2.70;;;;;;;;;;6243323;22;20171;-92
2022/06/15 21:57:31;;;;;;;7.55;2.80;;;;;;;;;;6241918;23;20163;-93
2022/06/15 22:00:38;;;;;;;6.07;2.80;;;;;;;;;;6241025;23;20167;-92
2022/06/15 22:03:43;;;;;;;5.40;2.90;;;;;;;;;;6241184;22;20162;-92
2022/06/15 22:06:48;;;;;;;7.07;2.90;;;;;;;;;;6241338;22;20272;-91
2022/06/15 22:09:53;;;;;;;7.43;2.70;;;;;;;;;;6240863;23;20162;-92
2022/06/15 22:13:00;;;;;;;11.48;3.20;;;;;;;;;;6241880;23;20606;-93
2022/06/15 22:16:05;;;;;;;10.77;3.45;;;;;;;;;;6240187;23;20490;-93
2022/06/15 22:19:11;;;;;;;10.73;2.70;;;;;;;;;;6241303;23;20167;-93
2022/06/15 22:22:25;;;;;;;6.22;3.15;;;;;;;;;;6240523;23;20240;-91
2022/06/15 22:25:32;;;;;;;7.57;2.95;;;;;;;;;;6242764;22;20198;-91
2022/06/15 22:28:39;;;;;;;5.65;2.80;;;;;;;;;;6241455;23;20186;-92
2022/06/15 22:31:44;;;;;;;6.25;2.78;;;;;;;;;;6242503;23;20185;-91
2022/06/15 22:34:50;;;;;;;9.10;3.05;;;;;;;;;;6241416;22;20217;-91
2022/06/15 22:37:55;;;;;;;7.68;2.90;;;;;;;;;;6242263;22;20597;-92
2022/06/15 22:41:01;;;;;;;6.28;3.00;;;;;;;;;;6242726;22;20170;-91
2022/06/15 22:44:08;;;;;;;5.50;2.85;;;;;;;;;;6243322;23;20245;-91
2022/06/15 22:47:13;;;;;;;4.75;2.90;;;;;;;;;;6242232;23;20518;-92
2022/06/15 22:53:45;;;;;;;6.57;2.80;;;;;;;;;;6243216;22;20186;-92
2022/06/15 22:56:50;;;;;;;7.28;2.97;;;;;;;;;;6242872;23;20278;-91
2022/06/15 22:59:57;;;;;;;8.30;3.58;;;;;;;;;;6241924;23;20167;-92
2022/06/15 23:03:04;;;;;;;6.95;3.03;;;;;;;;;;6243372;23;20155;-92
2022/06/15 23:06:09;;;;;;;8.18;3.05;;;;;;;;;;6241709;23;20175;-92
2022/06/15 23:09:15;;;;;;;6.03;3.17;;;;;;;;;;6242873;22;20145;-91
2022/06/15 23:12:21;;;;;;;6.65;3.10;;;;;;;;;;6240864;22;20179;-91
2022/06/15 23:15:29;;;;;;;7.25;3.50;;;;;;;;;;6240564;23;20965;-92
2022/06/15 23:18:35;;;;;;;7.78;3.33;;;;;;;;;;6238806;23;20182;-92
2022/06/15 23:21:41;;;;;;;4.72;2.90;;;;;;;;;;6239359;23;20167;-95
2022/06/15 23:24:47;;;;;;;11.63;4.50;;;;;;;;;;6240410;22;20273;-92
2022/06/15 23:27:53;;;;;;;6.70;3.20;;;;;;;;;;6240669;23;20165;-94
2022/06/15 23:31:01;;;;;;;8.68;3.70;;;;;;;;;;6244915;22;20162;-94
2022/06/15 23:34:08;;;;;;;7.22;3.28;;;;;;;;;;6245639;22;20178;-94
2022/06/15 23:37:14;;;;;;;6.47;3.30;;;;;;;;;;6246612;22;20167;-91
2022/06/15 23:40:21;;;;;;;8.25;3.55;;;;;;;;;;6246397;22;20205;-92
2022/06/15 23:43:28;;;;;;;8.65;3.25;;;;;;;;;;6244883;22;20151;-93
2022/06/15 23:49:58;;;;;;;7.25;2.97;;;;;;;;;;6246935;22;20150;-92
2022/06/15 23:53:04;;;;;;;8.27;3.70;;;;;;;;;;6245148;22;20296;-91
2022/06/15 23:56:09;;;;;;;5.68;2.80;;;;;;;;;;6246159;22;20157;-92
2022/06/15 23:59:15;;;;;;;5.88;3.30;;;;;;;;;;6246814;22;20247;-91
